FHAMM ZGSZ-VHSS
Flight info
| Callsign | FHAMM |
|---|---|
| Flight time | 0h 20m |
| Altitude | 1000 |
| Route | KEVAR URBOR LAXUS LUKBU |
| Aircraft | EC30/L-SFG/C |
Departure
| Time | 2026-04-28 13:14 |
|---|---|
| Airport | Shenzhen Bao'an International Airport (ZGSZ) |
Arrival
| Time | 2026-04-28 13:35 |
|---|---|
| Airport | Shun Tak Heliport (VHSS) |
| Time | Latitude | Longitude | Altitude | Speed | Heading |
|---|---|---|---|---|---|
| 2026-04-28 13:07 | 22.64535 | 113.81477 | 17 ft | 0 kts | 333° |
| 2026-04-28 13:12 | 22.64540 | 113.81474 | 22 ft | 5 kts | 161° |
| 2026-04-28 13:12 | 22.64511 | 113.81465 | 99 ft | 12 kts | 217° |
| 2026-04-28 13:13 | 22.64314 | 113.81382 | 258 ft | 48 kts | 199° |
| 2026-04-28 13:13 | 22.63878 | 113.81240 | 380 ft | 84 kts | 200° |
| 2026-04-28 13:13 | 22.63256 | 113.81039 | 393 ft | 95 kts | 193° |
| 2026-04-28 13:13 | 22.62634 | 113.80826 | 485 ft | 100 kts | 215° |
| 2026-04-28 13:14 | 22.62233 | 113.80125 | 373 ft | 116 kts | 244° |
| 2026-04-28 13:14 | 22.61907 | 113.79407 | 581 ft | 97 kts | 236° |
| 2026-04-28 13:14 | 22.61587 | 113.78765 | 698 ft | 99 kts | 239° |
| 2026-04-28 13:14 | 22.61301 | 113.78108 | 811 ft | 105 kts | 240° |
| 2026-04-28 13:15 | 22.61044 | 113.77324 | 771 ft | 112 kts | 250° |
| 2026-04-28 13:15 | 22.60814 | 113.76509 | 765 ft | 113 kts | 250° |
| 2026-04-28 13:15 | 22.60564 | 113.75697 | 765 ft | 113 kts | 249° |
| 2026-04-28 13:15 | 22.60301 | 113.74892 | 766 ft | 113 kts | 248° |
| 2026-04-28 13:16 | 22.60028 | 113.74088 | 764 ft | 113 kts | 247° |
| 2026-04-28 13:16 | 22.59752 | 113.73293 | 764 ft | 112 kts | 247° |
| 2026-04-28 13:16 | 22.59386 | 113.72568 | 737 ft | 110 kts | 227° |
| 2026-04-28 13:16 | 22.58728 | 113.72192 | 726 ft | 104 kts | 192° |
| 2026-04-28 13:17 | 22.58032 | 113.72309 | 750 ft | 101 kts | 166° |
| 2026-04-28 13:17 | 22.57361 | 113.72558 | 765 ft | 102 kts | 163° |
| 2026-04-28 13:17 | 22.56687 | 113.72826 | 768 ft | 103 kts | 163° |
| 2026-04-28 13:17 | 22.56001 | 113.73096 | 767 ft | 103 kts | 163° |
| 2026-04-28 13:18 | 22.55327 | 113.73358 | 764 ft | 103 kts | 164° |
| 2026-04-28 13:18 | 22.54645 | 113.73623 | 765 ft | 103 kts | 163° |
| 2026-04-28 13:18 | 22.53964 | 113.73888 | 763 ft | 103 kts | 164° |
| 2026-04-28 13:18 | 22.53279 | 113.74153 | 761 ft | 103 kts | 163° |
| 2026-04-28 13:19 | 22.52600 | 113.74417 | 767 ft | 103 kts | 163° |
| 2026-04-28 13:19 | 22.51915 | 113.74683 | 764 ft | 104 kts | 164° |
| 2026-04-28 13:19 | 22.51228 | 113.74949 | 764 ft | 104 kts | 164° |
| 2026-04-28 13:19 | 22.50547 | 113.75212 | 767 ft | 104 kts | 164° |
| 2026-04-28 13:20 | 22.49860 | 113.75478 | 768 ft | 104 kts | 164° |
| 2026-04-28 13:20 | 22.49168 | 113.75745 | 768 ft | 104 kts | 164° |
| 2026-04-28 13:20 | 22.48482 | 113.76011 | 769 ft | 104 kts | 164° |
| 2026-04-28 13:20 | 22.47787 | 113.76279 | 766 ft | 104 kts | 163° |
| 2026-04-28 13:21 | 22.47091 | 113.76549 | 768 ft | 104 kts | 163° |
| 2026-04-28 13:21 | 22.46401 | 113.76816 | 769 ft | 104 kts | 163° |
| 2026-04-28 13:21 | 22.45716 | 113.77080 | 769 ft | 104 kts | 165° |
| 2026-04-28 13:21 | 22.45024 | 113.77348 | 768 ft | 104 kts | 165° |
| 2026-04-28 13:22 | 22.44333 | 113.77615 | 769 ft | 104 kts | 164° |
| 2026-04-28 13:22 | 22.43643 | 113.77882 | 770 ft | 104 kts | 164° |
| 2026-04-28 13:22 | 22.42947 | 113.78151 | 769 ft | 105 kts | 164° |
| 2026-04-28 13:22 | 22.42256 | 113.78418 | 767 ft | 105 kts | 164° |
| 2026-04-28 13:23 | 22.41571 | 113.78683 | 774 ft | 103 kts | 164° |
| 2026-04-28 13:23 | 22.40881 | 113.78951 | 769 ft | 105 kts | 164° |
| 2026-04-28 13:23 | 22.40255 | 113.79366 | 738 ft | 108 kts | 141° |
| 2026-04-28 13:23 | 22.39909 | 113.80093 | 754 ft | 107 kts | 118° |
| 2026-04-28 13:24 | 22.39662 | 113.80866 | 766 ft | 108 kts | 115° |
| 2026-04-28 13:24 | 22.39436 | 113.81653 | 768 ft | 109 kts | 114° |
| 2026-04-28 13:24 | 22.39210 | 113.82438 | 768 ft | 109 kts | 115° |
| 2026-04-28 13:24 | 22.38982 | 113.83219 | 767 ft | 109 kts | 115° |
| 2026-04-28 13:25 | 22.38750 | 113.84004 | 768 ft | 109 kts | 115° |
| 2026-04-28 13:25 | 22.38512 | 113.84804 | 767 ft | 109 kts | 115° |
| 2026-04-28 13:25 | 22.38278 | 113.85588 | 769 ft | 109 kts | 115° |
| 2026-04-28 13:25 | 22.38046 | 113.86365 | 768 ft | 109 kts | 116° |
| 2026-04-28 13:26 | 22.37809 | 113.87160 | 768 ft | 110 kts | 116° |
| 2026-04-28 13:26 | 22.37571 | 113.87954 | 769 ft | 110 kts | 115° |
| 2026-04-28 13:26 | 22.37334 | 113.88743 | 768 ft | 109 kts | 115° |
| 2026-04-28 13:26 | 22.37088 | 113.89520 | 768 ft | 109 kts | 116° |
| 2026-04-28 13:27 | 22.36837 | 113.90301 | 769 ft | 109 kts | 116° |
| 2026-04-28 13:27 | 22.36583 | 113.91097 | 770 ft | 109 kts | 116° |
| 2026-04-28 13:27 | 22.36332 | 113.91878 | 770 ft | 109 kts | 116° |
| 2026-04-28 13:27 | 22.36085 | 113.92651 | 770 ft | 109 kts | 117° |
| 2026-04-28 13:28 | 22.35835 | 113.93434 | 771 ft | 109 kts | 116° |
| 2026-04-28 13:28 | 22.35587 | 113.94213 | 769 ft | 109 kts | 116° |
| 2026-04-28 13:28 | 22.35339 | 113.94990 | 772 ft | 109 kts | 116° |
| 2026-04-28 13:28 | 22.35088 | 113.95776 | 769 ft | 109 kts | 116° |
| 2026-04-28 13:29 | 22.34840 | 113.96551 | 770 ft | 108 kts | 116° |
| 2026-04-28 13:29 | 22.34588 | 113.97342 | 771 ft | 109 kts | 116° |
| 2026-04-28 13:29 | 22.34342 | 113.98112 | 771 ft | 109 kts | 116° |
| 2026-04-28 13:29 | 22.34260 | 113.98941 | 738 ft | 113 kts | 91° |
| 2026-04-28 13:30 | 22.34343 | 113.99782 | 769 ft | 112 kts | 92° |
| 2026-04-28 13:30 | 22.34421 | 114.00625 | 771 ft | 113 kts | 92° |
| 2026-04-28 13:30 | 22.34500 | 114.01474 | 772 ft | 112 kts | 92° |
| 2026-04-28 13:30 | 22.34543 | 114.02305 | 777 ft | 111 kts | 98° |
| 2026-04-28 13:31 | 22.34546 | 114.03996 | 783 ft | 112 kts | 97° |
| 2026-04-28 13:31 | 22.34504 | 114.04839 | 775 ft | 111 kts | 103° |
| 2026-04-28 13:31 | 22.34409 | 114.05657 | 786 ft | 109 kts | 108° |
| 2026-04-28 13:32 | 22.34179 | 114.06439 | 789 ft | 109 kts | 117° |
| 2026-04-28 13:32 | 22.33916 | 114.07221 | 784 ft | 110 kts | 117° |
| 2026-04-28 13:32 | 22.33562 | 114.07944 | 788 ft | 106 kts | 134° |
| 2026-04-28 13:32 | 22.33070 | 114.08543 | 775 ft | 109 kts | 137° |
| 2026-04-28 13:33 | 22.32548 | 114.09183 | 645 ft | 115 kts | 137° |
| 2026-04-28 13:33 | 22.32008 | 114.09843 | 547 ft | 115 kts | 138° |
| 2026-04-28 13:33 | 22.31487 | 114.10494 | 498 ft | 113 kts | 137° |
| 2026-04-28 13:33 | 22.30978 | 114.11113 | 503 ft | 109 kts | 138° |
| 2026-04-28 13:34 | 22.30467 | 114.11723 | 500 ft | 108 kts | 137° |
| 2026-04-28 13:34 | 22.30001 | 114.12329 | 490 ft | 96 kts | 134° |
| 2026-04-28 13:34 | 22.29714 | 114.12876 | 519 ft | 74 kts | 126° |
| 2026-04-28 13:34 | 22.29530 | 114.13321 | 499 ft | 60 kts | 122° |
| 2026-04-28 13:35 | 22.29377 | 114.13720 | 419 ft | 52 kts | 122° |
| 2026-04-28 13:35 | 22.29287 | 114.14030 | 390 ft | 32 kts | 108° |
| 2026-04-28 13:35 | 22.29226 | 114.14242 | 447 ft | 28 kts | 115° |
| 2026-04-28 13:35 | 22.29151 | 114.14429 | 427 ft | 27 kts | 115° |
| 2026-04-28 13:36 | 22.29072 | 114.14639 | 358 ft | 32 kts | 109° |
| 2026-04-28 13:36 | 22.28992 | 114.14899 | 250 ft | 32 kts | 122° |
| 2026-04-28 13:36 | 22.28941 | 114.15068 | 155 ft | 19 kts | 111° |
| 2026-04-28 13:36 | 22.28910 | 114.15147 | 101 ft | 6 kts | 117° |
| 2026-04-28 13:37 | 22.28898 | 114.15181 | 90 ft | 4 kts | 68° |
| 2026-04-28 13:37 | 22.28901 | 114.15188 | 78 ft | 0 kts | 64° |